DAL247 KPHX-KLAX
Flight info
| Callsign | DAL247 |
|---|---|
| Flight time | 0h 59m |
| Altitude | 29000 |
| Route | KEENS3 WLVRN ESTWD HLYWD1 |
| Aircraft | A359/H-SDE2E3GHIJ3J4J5LM1ORWXY/LB1D1 |
Departure
| Time | 2026-04-22 04:34 |
|---|---|
| Airport | Phoenix Sky Harbor International Airport (KPHX) |
Arrival
| Time | 2026-04-22 05:34 |
|---|---|
| Airport | Los Angeles International Airport (KLAX) |
| Time | Latitude | Longitude | Altitude | Speed | Heading |
|---|---|---|---|---|---|
| 2026-04-22 04:13 | 33.43335 | -111.99655 | 1137 ft | 0 kts | 2° |
| 2026-04-22 04:28 | 33.43329 | -111.99655 | 1140 ft | 3 kts | 360° |
| 2026-04-22 04:28 | 33.43308 | -111.99659 | 1138 ft | 3 kts | 22° |
| 2026-04-22 04:28 | 33.43290 | -111.99671 | 1141 ft | 3 kts | 44° |
| 2026-04-22 04:28 | 33.43278 | -111.99689 | 1140 ft | 3 kts | 65° |
| 2026-04-22 04:29 | 33.43275 | -111.99699 | 1142 ft | 0 kts | 72° |
| 2026-04-22 04:31 | 33.43275 | -111.99698 | 1140 ft | 1 kts | 72° |
| 2026-04-22 04:31 | 33.43282 | -111.99647 | 1140 ft | 12 kts | 85° |
| 2026-04-22 04:32 | 33.43285 | -111.99534 | 1140 ft | 15 kts | 90° |
| 2026-04-22 04:32 | 33.43279 | -111.99406 | 1140 ft | 6 kts | 103° |
| 2026-04-22 04:32 | 33.43279 | -111.99405 | 1140 ft | 0 kts | 104° |
| 2026-04-22 04:33 | 33.43274 | -111.99389 | 1142 ft | 9 kts | 115° |
| 2026-04-22 04:33 | 33.43170 | -111.99346 | 1143 ft | 20 kts | 177° |
| 2026-04-22 04:33 | 33.43103 | -111.99444 | 1145 ft | 17 kts | 264° |
| 2026-04-22 04:34 | 33.43103 | -111.99677 | 1145 ft | 58 kts | 270° |
| 2026-04-22 04:34 | 33.43103 | -112.00452 | 1139 ft | 127 kts | 270° |
| 2026-04-22 04:34 | 33.43106 | -112.01677 | 1527 ft | 152 kts | 268° |
| 2026-04-22 04:34 | 33.43051 | -112.02906 | 2429 ft | 147 kts | 262° |
| 2026-04-22 04:35 | 33.42888 | -112.04248 | 2834 ft | 178 kts | 260° |
| 2026-04-22 04:35 | 33.42670 | -112.05815 | 3115 ft | 202 kts | 259° |
| 2026-04-22 04:35 | 33.42392 | -112.07551 | 3437 ft | 223 kts | 258° |
| 2026-04-22 04:35 | 33.42031 | -112.09440 | 3797 ft | 241 kts | 256° |
| 2026-04-22 04:36 | 33.41577 | -112.11405 | 4397 ft | 248 kts | 253° |
| 2026-04-22 04:36 | 33.41033 | -112.13400 | 4962 ft | 256 kts | 250° |
| 2026-04-22 04:36 | 33.40408 | -112.15429 | 5551 ft | 262 kts | 249° |
| 2026-04-22 04:36 | 33.39757 | -112.17489 | 6196 ft | 266 kts | 249° |
| 2026-04-22 04:37 | 33.39258 | -112.19635 | 6832 ft | 271 kts | 262° |
| 2026-04-22 04:37 | 33.39322 | -112.21890 | 7407 ft | 279 kts | 276° |
| 2026-04-22 04:37 | 33.39655 | -112.24219 | 8039 ft | 283 kts | 278° |
| 2026-04-22 04:37 | 33.40024 | -112.26549 | 8654 ft | 287 kts | 278° |
| 2026-04-22 04:38 | 33.40395 | -112.28911 | 9293 ft | 290 kts | 277° |
| 2026-04-22 04:38 | 33.40762 | -112.31300 | 9943 ft | 294 kts | 277° |
| 2026-04-22 04:38 | 33.41122 | -112.33684 | 10537 ft | 296 kts | 277° |
| 2026-04-22 04:38 | 33.41491 | -112.36162 | 11029 ft | 304 kts | 277° |
| 2026-04-22 04:39 | 33.41864 | -112.38687 | 11304 ft | 319 kts | 277° |
| 2026-04-22 04:39 | 33.42257 | -112.41353 | 11594 ft | 332 kts | 277° |
| 2026-04-22 04:39 | 33.42664 | -112.44108 | 12015 ft | 339 kts | 277° |
| 2026-04-22 04:39 | 33.43078 | -112.46906 | 12521 ft | 343 kts | 277° |
| 2026-04-22 04:40 | 33.43496 | -112.49739 | 13029 ft | 347 kts | 277° |
| 2026-04-22 04:40 | 33.43917 | -112.52602 | 13574 ft | 350 kts | 277° |
| 2026-04-22 04:40 | 33.44339 | -112.55475 | 14096 ft | 353 kts | 277° |
| 2026-04-22 04:40 | 33.44763 | -112.58373 | 14594 ft | 355 kts | 277° |
| 2026-04-22 04:41 | 33.45029 | -112.61315 | 15089 ft | 355 kts | 270° |
| 2026-04-22 04:41 | 33.45096 | -112.64278 | 15598 ft | 356 kts | 269° |
| 2026-04-22 04:41 | 33.45130 | -112.67242 | 16107 ft | 358 kts | 268° |
| 2026-04-22 04:41 | 33.45162 | -112.70240 | 16607 ft | 360 kts | 268° |
| 2026-04-22 04:42 | 33.45197 | -112.73255 | 17112 ft | 362 kts | 268° |
| 2026-04-22 04:42 | 33.45234 | -112.76280 | 17611 ft | 364 kts | 269° |
| 2026-04-22 04:42 | 33.45423 | -112.79317 | 18094 ft | 369 kts | 276° |
| 2026-04-22 04:42 | 33.46084 | -112.82309 | 18521 ft | 374 kts | 287° |
| 2026-04-22 04:43 | 33.47059 | -112.85215 | 18916 ft | 378 kts | 290° |
| 2026-04-22 04:43 | 33.48090 | -112.88113 | 19330 ft | 380 kts | 290° |
| 2026-04-22 04:43 | 33.49128 | -112.91033 | 19747 ft | 381 kts | 290° |
| 2026-04-22 04:43 | 33.50165 | -112.93968 | 20151 ft | 383 kts | 290° |
| 2026-04-22 04:44 | 33.51204 | -112.96922 | 20547 ft | 386 kts | 290° |
| 2026-04-22 04:44 | 33.52243 | -112.99889 | 20944 ft | 388 kts | 290° |
| 2026-04-22 04:44 | 33.53288 | -113.02877 | 21345 ft | 389 kts | 290° |
| 2026-04-22 04:44 | 33.54322 | -113.05839 | 21739 ft | 391 kts | 290° |
| 2026-04-22 04:45 | 33.55375 | -113.08858 | 22137 ft | 393 kts | 290° |
| 2026-04-22 04:45 | 33.56431 | -113.11892 | 22519 ft | 396 kts | 290° |
| 2026-04-22 04:45 | 33.57494 | -113.14945 | 22928 ft | 398 kts | 290° |
| 2026-04-22 04:45 | 33.58562 | -113.18018 | 23337 ft | 400 kts | 290° |
| 2026-04-22 04:46 | 33.59634 | -113.21109 | 23703 ft | 402 kts | 290° |
| 2026-04-22 04:46 | 33.60712 | -113.24216 | 24061 ft | 404 kts | 290° |
| 2026-04-22 04:46 | 33.61428 | -113.26282 | 24310 ft | 406 kts | 290° |
| 2026-04-22 04:46 | 33.62512 | -113.29414 | 24663 ft | 408 kts | 290° |
| 2026-04-22 04:47 | 33.63602 | -113.32565 | 24991 ft | 410 kts | 290° |
| 2026-04-22 04:47 | 33.64698 | -113.35736 | 25360 ft | 412 kts | 290° |
| 2026-04-22 04:47 | 33.65797 | -113.38919 | 25730 ft | 414 kts | 290° |
| 2026-04-22 04:47 | 33.66901 | -113.42119 | 26090 ft | 416 kts | 290° |
| 2026-04-22 04:48 | 33.68008 | -113.45335 | 26436 ft | 419 kts | 290° |
| 2026-04-22 04:48 | 33.69124 | -113.48577 | 26796 ft | 421 kts | 289° |
| 2026-04-22 04:48 | 33.70244 | -113.51833 | 27168 ft | 423 kts | 289° |
| 2026-04-22 04:48 | 33.71368 | -113.55108 | 27542 ft | 425 kts | 289° |
| 2026-04-22 04:49 | 33.72499 | -113.58405 | 27888 ft | 429 kts | 289° |
| 2026-04-22 04:49 | 33.73638 | -113.61728 | 28285 ft | 431 kts | 289° |
| 2026-04-22 04:49 | 33.74781 | -113.65065 | 28661 ft | 433 kts | 289° |
| 2026-04-22 04:49 | 33.75930 | -113.68425 | 29032 ft | 436 kts | 289° |
| 2026-04-22 04:50 | 33.77085 | -113.71806 | 29382 ft | 439 kts | 289° |
| 2026-04-22 04:50 | 33.78249 | -113.75215 | 29776 ft | 442 kts | 289° |
| 2026-04-22 04:50 | 33.79418 | -113.78643 | 30003 ft | 442 kts | 289° |
| 2026-04-22 04:50 | 33.80565 | -113.82000 | 29988 ft | 426 kts | 289° |
| 2026-04-22 04:51 | 33.81672 | -113.85240 | 29958 ft | 411 kts | 289° |
| 2026-04-22 04:51 | 33.82737 | -113.88364 | 29928 ft | 397 kts | 288° |
| 2026-04-22 04:51 | 33.83764 | -113.91380 | 29919 ft | 383 kts | 288° |
| 2026-04-22 04:51 | 33.84753 | -113.94293 | 29918 ft | 369 kts | 288° |
| 2026-04-22 04:52 | 33.85706 | -113.97101 | 29920 ft | 356 kts | 288° |
| 2026-04-22 04:52 | 33.86613 | -113.99775 | 29921 ft | 343 kts | 288° |
| 2026-04-22 04:52 | 33.87495 | -114.02379 | 29914 ft | 329 kts | 288° |
| 2026-04-22 04:52 | 33.88353 | -114.04914 | 29913 ft | 316 kts | 287° |
| 2026-04-22 04:53 | 33.89152 | -114.07275 | 29916 ft | 302 kts | 287° |
| 2026-04-22 04:53 | 33.89922 | -114.09563 | 29908 ft | 288 kts | 286° |
| 2026-04-22 04:53 | 33.90546 | -114.11772 | 29903 ft | 270 kts | 280° |
| 2026-04-22 04:53 | 33.90968 | -114.13903 | 29890 ft | 256 kts | 276° |
| 2026-04-22 04:54 | 33.91330 | -114.16040 | 29931 ft | 267 kts | 276° |
| 2026-04-22 04:54 | 33.91703 | -114.18294 | 29932 ft | 282 kts | 276° |
| 2026-04-22 04:54 | 33.92098 | -114.20669 | 29934 ft | 297 kts | 277° |
| 2026-04-22 04:54 | 33.92519 | -114.23173 | 29930 ft | 313 kts | 277° |
| 2026-04-22 04:55 | 33.92962 | -114.25801 | 29928 ft | 329 kts | 277° |
| 2026-04-22 04:55 | 33.93432 | -114.28580 | 29922 ft | 346 kts | 277° |
| 2026-04-22 04:55 | 33.93923 | -114.31485 | 29923 ft | 364 kts | 277° |
| 2026-04-22 04:55 | 33.94440 | -114.34544 | 29919 ft | 381 kts | 278° |
| 2026-04-22 04:56 | 33.94980 | -114.37737 | 29912 ft | 395 kts | 278° |
| 2026-04-22 04:56 | 33.96078 | -114.44218 | 29904 ft | 394 kts | 278° |
| 2026-04-22 04:57 | 33.97168 | -114.50694 | 29911 ft | 394 kts | 278° |
| 2026-04-22 04:57 | 33.98243 | -114.57123 | 29903 ft | 394 kts | 278° |
| 2026-04-22 04:58 | 33.99322 | -114.63601 | 29899 ft | 394 kts | 278° |
| 2026-04-22 04:58 | 34.00398 | -114.70077 | 29904 ft | 394 kts | 278° |
| 2026-04-22 04:59 | 34.01470 | -114.76563 | 29909 ft | 395 kts | 278° |
| 2026-04-22 04:59 | 34.02541 | -114.83053 | 29917 ft | 395 kts | 278° |
| 2026-04-22 05:00 | 34.03607 | -114.89542 | 29916 ft | 395 kts | 278° |
| 2026-04-22 05:00 | 34.04673 | -114.96048 | 29923 ft | 395 kts | 278° |
| 2026-04-22 05:01 | 34.05740 | -115.02540 | 29930 ft | 395 kts | 278° |
| 2026-04-22 05:01 | 34.06813 | -115.09028 | 29937 ft | 395 kts | 278° |
| 2026-04-22 05:02 | 34.07862 | -115.15521 | 29934 ft | 394 kts | 277° |
| 2026-04-22 05:02 | 34.08921 | -115.22162 | 29948 ft | 419 kts | 277° |
| 2026-04-22 05:02 | 34.09476 | -115.25631 | 29955 ft | 434 kts | 278° |
| 2026-04-22 05:03 | 34.10061 | -115.29259 | 29942 ft | 435 kts | 278° |
| 2026-04-22 05:03 | 34.11205 | -115.36361 | 29890 ft | 433 kts | 278° |
| 2026-04-22 05:03 | 34.11777 | -115.39921 | 29353 ft | 431 kts | 277° |
| 2026-04-22 05:04 | 34.12347 | -115.43483 | 28564 ft | 434 kts | 277° |
| 2026-04-22 05:04 | 34.12918 | -115.47064 | 27816 ft | 436 kts | 277° |
| 2026-04-22 05:04 | 34.13490 | -115.50650 | 27520 ft | 433 kts | 277° |
| 2026-04-22 05:04 | 34.14055 | -115.54194 | 27266 ft | 427 kts | 277° |
| 2026-04-22 05:05 | 34.14611 | -115.57696 | 27019 ft | 423 kts | 277° |
| 2026-04-22 05:05 | 34.15162 | -115.61174 | 26774 ft | 421 kts | 277° |
| 2026-04-22 05:05 | 34.15709 | -115.64638 | 26517 ft | 420 kts | 277° |
| 2026-04-22 05:05 | 34.16170 | -115.68111 | 26284 ft | 416 kts | 271° |
| 2026-04-22 05:06 | 34.16143 | -115.71573 | 26055 ft | 410 kts | 262° |
| 2026-04-22 05:06 | 34.15843 | -115.74989 | 25808 ft | 408 kts | 260° |
| 2026-04-22 05:06 | 34.15505 | -115.78384 | 25576 ft | 407 kts | 260° |
| 2026-04-22 05:06 | 34.15167 | -115.81768 | 25356 ft | 405 kts | 260° |
| 2026-04-22 05:07 | 34.14834 | -115.85143 | 25132 ft | 403 kts | 260° |
| 2026-04-22 05:07 | 34.14505 | -115.88499 | 24910 ft | 402 kts | 260° |
| 2026-04-22 05:07 | 34.14177 | -115.91849 | 24686 ft | 401 kts | 260° |
| 2026-04-22 05:07 | 34.13850 | -115.95185 | 24464 ft | 399 kts | 260° |
| 2026-04-22 05:08 | 34.13525 | -115.98504 | 24240 ft | 398 kts | 260° |
| 2026-04-22 05:08 | 34.13201 | -116.01816 | 24097 ft | 397 kts | 260° |
| 2026-04-22 05:08 | 34.12877 | -116.05119 | 24071 ft | 396 kts | 260° |
| 2026-04-22 05:08 | 34.12552 | -116.08426 | 24076 ft | 396 kts | 260° |
| 2026-04-22 05:09 | 34.12227 | -116.11718 | 24075 ft | 395 kts | 260° |
| 2026-04-22 05:09 | 34.11903 | -116.15009 | 24078 ft | 395 kts | 260° |
| 2026-04-22 05:09 | 34.11582 | -116.18255 | 24075 ft | 394 kts | 260° |
| 2026-04-22 05:09 | 34.11256 | -116.21543 | 24074 ft | 394 kts | 260° |
| 2026-04-22 05:10 | 34.10930 | -116.24825 | 24069 ft | 394 kts | 260° |
| 2026-04-22 05:10 | 34.10602 | -116.28111 | 24063 ft | 393 kts | 259° |
| 2026-04-22 05:10 | 34.10267 | -116.31378 | 24054 ft | 393 kts | 259° |
| 2026-04-22 05:10 | 34.09918 | -116.34661 | 24048 ft | 393 kts | 259° |
| 2026-04-22 05:11 | 34.09569 | -116.37920 | 24037 ft | 392 kts | 259° |
| 2026-04-22 05:11 | 34.09220 | -116.41186 | 24010 ft | 392 kts | 259° |
| 2026-04-22 05:11 | 34.08869 | -116.44448 | 24010 ft | 392 kts | 259° |
| 2026-04-22 05:11 | 34.08518 | -116.47713 | 24016 ft | 392 kts | 259° |
| 2026-04-22 05:12 | 34.08169 | -116.50953 | 24012 ft | 388 kts | 259° |
| 2026-04-22 05:12 | 34.07822 | -116.54168 | 24014 ft | 385 kts | 259° |
| 2026-04-22 05:12 | 34.07475 | -116.57376 | 24015 ft | 385 kts | 259° |
| 2026-04-22 05:12 | 34.07152 | -116.60582 | 24021 ft | 385 kts | 260° |
| 2026-04-22 05:13 | 34.06854 | -116.63789 | 23804 ft | 385 kts | 260° |
| 2026-04-22 05:13 | 34.06559 | -116.66991 | 23271 ft | 384 kts | 260° |
| 2026-04-22 05:13 | 34.06265 | -116.70174 | 22798 ft | 380 kts | 260° |
| 2026-04-22 05:13 | 34.05972 | -116.73338 | 22368 ft | 377 kts | 260° |
| 2026-04-22 05:14 | 34.05680 | -116.76463 | 21938 ft | 375 kts | 260° |
| 2026-04-22 05:14 | 34.05387 | -116.79584 | 21493 ft | 373 kts | 260° |
| 2026-04-22 05:14 | 34.05098 | -116.82674 | 21070 ft | 371 kts | 260° |
| 2026-04-22 05:14 | 34.04808 | -116.85755 | 20663 ft | 368 kts | 260° |
| 2026-04-22 05:15 | 34.04511 | -116.88772 | 20255 ft | 366 kts | 259° |
| 2026-04-22 05:15 | 34.04141 | -116.91793 | 19847 ft | 363 kts | 258° |
| 2026-04-22 05:15 | 34.03752 | -116.94790 | 19434 ft | 361 kts | 258° |
| 2026-04-22 05:15 | 34.03364 | -116.97768 | 19149 ft | 359 kts | 258° |
| 2026-04-22 05:16 | 34.02976 | -117.00737 | 18668 ft | 359 kts | 258° |
| 2026-04-22 05:16 | 34.02598 | -117.03708 | 18168 ft | 357 kts | 258° |
| 2026-04-22 05:16 | 34.02246 | -117.06646 | 17742 ft | 352 kts | 258° |
| 2026-04-22 05:16 | 34.01904 | -117.09548 | 17277 ft | 348 kts | 259° |
| 2026-04-22 05:17 | 34.01563 | -117.12420 | 16881 ft | 345 kts | 259° |
| 2026-04-22 05:17 | 34.01223 | -117.15281 | 16407 ft | 343 kts | 259° |
| 2026-04-22 05:17 | 34.00887 | -117.18105 | 15995 ft | 340 kts | 259° |
| 2026-04-22 05:17 | 34.00551 | -117.20916 | 15616 ft | 337 kts | 259° |
| 2026-04-22 05:18 | 33.99897 | -117.26396 | 15010 ft | 322 kts | 259° |
| 2026-04-22 05:18 | 33.99580 | -117.29050 | 14799 ft | 317 kts | 259° |
| 2026-04-22 05:18 | 33.99269 | -117.31660 | 14437 ft | 313 kts | 259° |
| 2026-04-22 05:19 | 33.98963 | -117.34256 | 13984 ft | 313 kts | 259° |
| 2026-04-22 05:19 | 33.98685 | -117.36852 | 13466 ft | 312 kts | 264° |
| 2026-04-22 05:19 | 33.99047 | -117.39406 | 13195 ft | 318 kts | 285° |
| 2026-04-22 05:19 | 33.99704 | -117.41939 | 12934 ft | 316 kts | 278° |
| 2026-04-22 05:20 | 33.99841 | -117.44547 | 12695 ft | 310 kts | 262° |
| 2026-04-22 05:20 | 33.99235 | -117.46992 | 12490 ft | 304 kts | 238° |
| 2026-04-22 05:20 | 33.97754 | -117.48771 | 12358 ft | 303 kts | 212° |
| 2026-04-22 05:20 | 33.95995 | -117.50167 | 12226 ft | 303 kts | 224° |
| 2026-04-22 05:21 | 33.94867 | -117.52277 | 12111 ft | 304 kts | 248° |
| 2026-04-22 05:21 | 33.94519 | -117.54791 | 12035 ft | 308 kts | 268° |
| 2026-04-22 05:21 | 33.94883 | -117.57348 | 12029 ft | 313 kts | 283° |
| 2026-04-22 05:21 | 33.95594 | -117.59818 | 11775 ft | 310 kts | 286° |
| 2026-04-22 05:22 | 33.96338 | -117.62253 | 11234 ft | 310 kts | 286° |
| 2026-04-22 05:22 | 33.97066 | -117.64701 | 10717 ft | 310 kts | 285° |
| 2026-04-22 05:22 | 33.97774 | -117.67156 | 10232 ft | 309 kts | 285° |
| 2026-04-22 05:22 | 33.98466 | -117.69604 | 9713 ft | 308 kts | 285° |
| 2026-04-22 05:23 | 33.99144 | -117.72033 | 9247 ft | 305 kts | 285° |
| 2026-04-22 05:23 | 33.99756 | -117.74469 | 9044 ft | 302 kts | 278° |
| 2026-04-22 05:23 | 33.99856 | -117.76964 | 9019 ft | 298 kts | 263° |
| 2026-04-22 05:23 | 33.99652 | -117.79412 | 9012 ft | 286 kts | 261° |
| 2026-04-22 05:24 | 33.99412 | -117.81740 | 8823 ft | 276 kts | 260° |
| 2026-04-22 05:24 | 33.99179 | -117.84000 | 8551 ft | 269 kts | 261° |
| 2026-04-22 05:24 | 33.98954 | -117.86218 | 8225 ft | 264 kts | 261° |
| 2026-04-22 05:24 | 33.98734 | -117.88406 | 7869 ft | 262 kts | 261° |
| 2026-04-22 05:25 | 33.98517 | -117.90583 | 7509 ft | 260 kts | 261° |
| 2026-04-22 05:25 | 33.98302 | -117.92744 | 7114 ft | 260 kts | 261° |
| 2026-04-22 05:25 | 33.98084 | -117.94936 | 6515 ft | 268 kts | 262° |
| 2026-04-22 05:25 | 33.97863 | -117.97164 | 6044 ft | 268 kts | 262° |
| 2026-04-22 05:26 | 33.97647 | -117.99349 | 5671 ft | 263 kts | 262° |
| 2026-04-22 05:26 | 33.97451 | -118.01482 | 5305 ft | 247 kts | 265° |
| 2026-04-22 05:26 | 33.97293 | -118.03490 | 5040 ft | 239 kts | 261° |
| 2026-04-22 05:26 | 33.97068 | -118.05456 | 4997 ft | 239 kts | 262° |
| 2026-04-22 05:27 | 33.96867 | -118.07452 | 4987 ft | 238 kts | 263° |
| 2026-04-22 05:27 | 33.96701 | -118.09101 | 4983 ft | 229 kts | 263° |
| 2026-04-22 05:27 | 33.96522 | -118.10893 | 4821 ft | 202 kts | 263° |
| 2026-04-22 05:27 | 33.96365 | -118.12478 | 4621 ft | 181 kts | 263° |
| 2026-04-22 05:28 | 33.96216 | -118.13928 | 4328 ft | 168 kts | 263° |
| 2026-04-22 05:28 | 33.96077 | -118.15284 | 3997 ft | 159 kts | 263° |
| 2026-04-22 05:28 | 33.95946 | -118.16571 | 3701 ft | 150 kts | 264° |
| 2026-04-22 05:28 | 33.95824 | -118.17777 | 3485 ft | 140 kts | 264° |
| 2026-04-22 05:29 | 33.95709 | -118.18894 | 3307 ft | 129 kts | 264° |
| 2026-04-22 05:29 | 33.95602 | -118.19954 | 3148 ft | 127 kts | 264° |
| 2026-04-22 05:29 | 33.95494 | -118.21013 | 2981 ft | 127 kts | 264° |
| 2026-04-22 05:29 | 33.95387 | -118.22062 | 2819 ft | 126 kts | 264° |
| 2026-04-22 05:30 | 33.95280 | -118.23112 | 2650 ft | 126 kts | 264° |
| 2026-04-22 05:30 | 33.95174 | -118.24159 | 2479 ft | 125 kts | 264° |
| 2026-04-22 05:30 | 33.95068 | -118.25200 | 2307 ft | 125 kts | 264° |
| 2026-04-22 05:30 | 33.94962 | -118.26236 | 2139 ft | 125 kts | 264° |
| 2026-04-22 05:31 | 33.94857 | -118.27275 | 1966 ft | 124 kts | 263° |
| 2026-04-22 05:31 | 33.94787 | -118.27955 | 1855 ft | 124 kts | 263° |
| 2026-04-22 05:31 | 33.94682 | -118.28984 | 1692 ft | 124 kts | 264° |
| 2026-04-22 05:31 | 33.94543 | -118.30348 | 1470 ft | 125 kts | 264° |
| 2026-04-22 05:32 | 33.94436 | -118.31399 | 1296 ft | 125 kts | 264° |
| 2026-04-22 05:32 | 33.94331 | -118.32438 | 1127 ft | 125 kts | 263° |
| 2026-04-22 05:32 | 33.94225 | -118.33469 | 958 ft | 123 kts | 263° |
| 2026-04-22 05:32 | 33.94156 | -118.34147 | 832 ft | 123 kts | 264° |
| 2026-04-22 05:33 | 33.94051 | -118.35184 | 676 ft | 124 kts | 264° |
| 2026-04-22 05:33 | 33.93947 | -118.36195 | 493 ft | 123 kts | 266° |
| 2026-04-22 05:33 | 33.93809 | -118.37565 | 277 ft | 123 kts | 263° |
| 2026-04-22 05:33 | 33.93740 | -118.38237 | 178 ft | 120 kts | 263° |
| 2026-04-22 05:34 | 33.93643 | -118.39185 | 132 ft | 107 kts | 263° |
| 2026-04-22 05:34 | 33.93581 | -118.39792 | 128 ft | 30 kts | 262° |